sensor_id;sensor_type;location;lat;lon;timestamp;P1;durP1;ratioP1;P2;durP2;ratioP2
68800;SDS011;55784;50.734;7.086;2022-07-29T00:00:37;6.67;;;2.00;;
68800;SDS011;55784;50.734;7.086;2022-07-29T00:03:03;5.87;;;1.80;;
68800;SDS011;55784;50.734;7.086;2022-07-29T00:05:28;5.63;;;1.80;;
68800;SDS011;55784;50.734;7.086;2022-07-29T00:07:53;8.47;;;1.90;;
68800;SDS011;55784;50.734;7.086;2022-07-29T00:10:19;6.83;;;2.00;;
68800;SDS011;55784;50.734;7.086;2022-07-29T00:12:45;6.75;;;1.90;;
68800;SDS011;55784;50.734;7.086;2022-07-29T00:15:10;7.87;;;2.07;;
68800;SDS011;55784;50.734;7.086;2022-07-29T00:17:35;4.87;;;1.60;;
68800;SDS011;55784;50.734;7.086;2022-07-29T00:20:01;6.33;;;1.80;;
68800;SDS011;55784;50.734;7.086;2022-07-29T00:22:26;5.97;;;1.73;;
68800;SDS011;55784;50.734;7.086;2022-07-29T00:24:51;7.17;;;1.60;;
68800;SDS011;55784;50.734;7.086;2022-07-29T00:27:17;6.47;;;1.90;;
68800;SDS011;55784;50.734;7.086;2022-07-29T00:29:43;6.60;;;1.93;;
68800;SDS011;55784;50.734;7.086;2022-07-29T00:32:08;5.13;;;1.75;;
68800;SDS011;55784;50.734;7.086;2022-07-29T00:34:33;5.03;;;1.73;;
68800;SDS011;55784;50.734;7.086;2022-07-29T00:37:17;5.72;;;1.70;;
68800;SDS011;55784;50.734;7.086;2022-07-29T00:39:42;7.37;;;1.90;;
68800;SDS011;55784;50.734;7.086;2022-07-29T00:42:08;6.30;;;1.60;;
68800;SDS011;55784;50.734;7.086;2022-07-29T00:44:37;5.47;;;1.80;;
68800;SDS011;55784;50.734;7.086;2022-07-29T00:47:04;6.22;;;1.80;;
68800;SDS011;55784;50.734;7.086;2022-07-29T00:49:29;4.97;;;1.70;;
68800;SDS011;55784;50.734;7.086;2022-07-29T00:51:56;7.20;;;1.90;;
68800;SDS011;55784;50.734;7.086;2022-07-29T00:54:22;6.53;;;1.90;;
68800;SDS011;55784;50.734;7.086;2022-07-29T00:56:47;5.93;;;1.67;;
68800;SDS011;55784;50.734;7.086;2022-07-29T00:59:13;7.07;;;1.90;;
68800;SDS011;55784;50.734;7.086;2022-07-29T01:01:38;7.30;;;1.80;;
68800;SDS011;55784;50.734;7.086;2022-07-29T01:04:03;9.83;;;2.10;;
68800;SDS011;55784;50.734;7.086;2022-07-29T01:06:31;7.30;;;2.10;;
68800;SDS011;55784;50.734;7.086;2022-07-29T01:08:56;5.50;;;1.80;;
68800;SDS011;55784;50.734;7.086;2022-07-29T01:11:23;7.28;;;2.05;;
68800;SDS011;55784;50.734;7.086;2022-07-29T01:13:48;7.10;;;2.08;;
68800;SDS011;55784;50.734;7.086;2022-07-29T01:16:18;5.90;;;1.80;;
68800;SDS011;55784;50.734;7.086;2022-07-29T01:22:19;7.43;;;2.30;;
68800;SDS011;55784;50.734;7.086;2022-07-29T01:25:02;6.43;;;2.00;;
68800;SDS011;55784;50.734;7.086;2022-07-29T01:30:45;5.35;;;1.90;;
68800;SDS011;55784;50.734;7.086;2022-07-29T01:33:14;5.28;;;1.80;;
68800;SDS011;55784;50.734;7.086;2022-07-29T01:36:01;5.85;;;2.08;;
68800;SDS011;55784;50.734;7.086;2022-07-29T01:38:32;6.55;;;2.05;;
68800;SDS011;55784;50.734;7.086;2022-07-29T01:41:05;5.87;;;1.90;;
68800;SDS011;55784;50.734;7.086;2022-07-29T01:43:36;6.95;;;1.80;;
68800;SDS011;55784;50.734;7.086;2022-07-29T01:46:09;10.00;;;2.10;;
68800;SDS011;55784;50.734;7.086;2022-07-29T01:48:40;6.47;;;2.10;;
68800;SDS011;55784;50.734;7.086;2022-07-29T01:51:12;5.50;;;1.70;;
68800;SDS011;55784;50.734;7.086;2022-07-29T01:53:42;5.83;;;1.87;;
68800;SDS011;55784;50.734;7.086;2022-07-29T01:56:18;7.07;;;1.90;;
68800;SDS011;55784;50.734;7.086;2022-07-29T01:58:46;6.00;;;1.90;;
68800;SDS011;55784;50.734;7.086;2022-07-29T02:01:13;5.63;;;1.80;;
68800;SDS011;55784;50.734;7.086;2022-07-29T02:03:39;5.85;;;2.00;;
68800;SDS011;55784;50.734;7.086;2022-07-29T02:06:08;6.50;;;1.90;;
68800;SDS011;55784;50.734;7.086;2022-07-29T02:08:35;5.75;;;1.90;;
68800;SDS011;55784;50.734;7.086;2022-07-29T02:11:02;6.03;;;1.90;;
68800;SDS011;55784;50.734;7.086;2022-07-29T02:13:30;6.25;;;1.95;;
68800;SDS011;55784;50.734;7.086;2022-07-29T02:15:59;7.03;;;2.17;;
68800;SDS011;55784;50.734;7.086;2022-07-29T02:18:27;6.53;;;1.90;;
68800;SDS011;55784;50.734;7.086;2022-07-29T02:20:53;8.10;;;1.90;;
68800;SDS011;55784;50.734;7.086;2022-07-29T02:23:21;6.13;;;1.90;;
68800;SDS011;55784;50.734;7.086;2022-07-29T02:25:48;7.57;;;2.00;;
68800;SDS011;55784;50.734;7.086;2022-07-29T02:28:16;7.55;;;1.98;;
68800;SDS011;55784;50.734;7.086;2022-07-29T02:30:42;6.33;;;1.80;;
68800;SDS011;55784;50.734;7.086;2022-07-29T02:33:09;6.45;;;2.10;;
68800;SDS011;55784;50.734;7.086;2022-07-29T02:35:37;6.88;;;2.00;;
68800;SDS011;55784;50.734;7.086;2022-07-29T02:38:05;6.20;;;2.00;;
68800;SDS011;55784;50.734;7.086;2022-07-29T02:40:50;6.88;;;2.00;;
68800;SDS011;55784;50.734;7.086;2022-07-29T02:43:16;5.97;;;1.97;;
68800;SDS011;55784;50.734;7.086;2022-07-29T02:45:43;6.88;;;2.17;;
68800;SDS011;55784;50.734;7.086;2022-07-29T02:48:11;5.85;;;2.05;;
68800;SDS011;55784;50.734;7.086;2022-07-29T02:50:50;6.90;;;2.00;;
68800;SDS011;55784;50.734;7.086;2022-07-29T02:53:19;6.55;;;2.17;;
68800;SDS011;55784;50.734;7.086;2022-07-29T02:55:48;5.73;;;2.00;;
68800;SDS011;55784;50.734;7.086;2022-07-29T02:58:33;6.22;;;2.17;;
68800;SDS011;55784;50.734;7.086;2022-07-29T03:01:03;7.50;;;2.20;;
68800;SDS011;55784;50.734;7.086;2022-07-29T03:03:35;6.32;;;1.92;;
68800;SDS011;55784;50.734;7.086;2022-07-29T03:06:02;7.45;;;1.90;;
68800;SDS011;55784;50.734;7.086;2022-07-29T03:08:29;6.13;;;1.80;;
68800;SDS011;55784;50.734;7.086;2022-07-29T03:10:56;8.75;;;2.15;;
68800;SDS011;55784;50.734;7.086;2022-07-29T03:13:22;8.15;;;2.10;;
68800;SDS011;55784;50.734;7.086;2022-07-29T03:15:48;6.30;;;2.00;;
68800;SDS011;55784;50.734;7.086;2022-07-29T03:18:15;6.40;;;1.98;;
68800;SDS011;55784;50.734;7.086;2022-07-29T03:20:40;7.83;;;2.10;;
68800;SDS011;55784;50.734;7.086;2022-07-29T03:23:06;7.47;;;2.43;;
68800;SDS011;55784;50.734;7.086;2022-07-29T03:25:33;8.43;;;2.30;;
68800;SDS011;55784;50.734;7.086;2022-07-29T03:27:58;7.07;;;2.10;;
68800;SDS011;55784;50.734;7.086;2022-07-29T03:30:23;8.20;;;2.50;;
68800;SDS011;55784;50.734;7.086;2022-07-29T03:32:49;8.50;;;2.78;;
68800;SDS011;55784;50.734;7.086;2022-07-29T03:35:15;7.57;;;2.03;;
68800;SDS011;55784;50.734;7.086;2022-07-29T03:37:44;6.57;;;2.00;;
68800;SDS011;55784;50.734;7.086;2022-07-29T03:40:11;6.50;;;2.40;;
68800;SDS011;55784;50.734;7.086;2022-07-29T03:42:41;7.10;;;2.22;;
68800;SDS011;55784;50.734;7.086;2022-07-29T03:45:09;7.63;;;2.30;;
68800;SDS011;55784;50.734;7.086;2022-07-29T03:47:38;9.57;;;2.50;;
68800;SDS011;55784;50.734;7.086;2022-07-29T03:50:10;6.68;;;2.00;;
68800;SDS011;55784;50.734;7.086;2022-07-29T03:52:38;7.60;;;2.20;;
68800;SDS011;55784;50.734;7.086;2022-07-29T03:55:03;7.37;;;2.33;;
68800;SDS011;55784;50.734;7.086;2022-07-29T03:57:30;7.55;;;2.40;;
68800;SDS011;55784;50.734;7.086;2022-07-29T03:59:56;8.00;;;2.38;;
68800;SDS011;55784;50.734;7.086;2022-07-29T04:02:22;6.82;;;2.30;;
68800;SDS011;55784;50.734;7.086;2022-07-29T04:04:48;7.13;;;2.17;;
68800;SDS011;55784;50.734;7.086;2022-07-29T04:07:14;8.23;;;2.47;;
68800;SDS011;55784;50.734;7.086;2022-07-29T04:09:40;7.75;;;2.42;;
68800;SDS011;55784;50.734;7.086;2022-07-29T04:12:05;7.47;;;2.40;;
68800;SDS011;55784;50.734;7.086;2022-07-29T04:14:31;8.40;;;2.63;;
68800;SDS011;55784;50.734;7.086;2022-07-29T04:16:57;6.15;;;2.30;;
68800;SDS011;55784;50.734;7.086;2022-07-29T04:19:23;8.10;;;2.60;;
68800;SDS011;55784;50.734;7.086;2022-07-29T04:21:48;6.90;;;2.40;;
68800;SDS011;55784;50.734;7.086;2022-07-29T04:24:14;6.83;;;2.50;;
68800;SDS011;55784;50.734;7.086;2022-07-29T04:26:39;6.47;;;2.50;;
68800;SDS011;55784;50.734;7.086;2022-07-29T04:29:05;8.17;;;2.30;;
68800;SDS011;55784;50.734;7.086;2022-07-29T04:31:30;9.10;;;2.37;;
68800;SDS011;55784;50.734;7.086;2022-07-29T04:33:55;9.10;;;2.70;;
68800;SDS011;55784;50.734;7.086;2022-07-29T04:36:21;8.07;;;2.30;;
68800;SDS011;55784;50.734;7.086;2022-07-29T04:41:35;10.25;;;2.55;;
68800;SDS011;55784;50.734;7.086;2022-07-29T04:44:00;8.27;;;2.73;;
68800;SDS011;55784;50.734;7.086;2022-07-29T04:46:29;10.07;;;2.60;;
68800;SDS011;55784;50.734;7.086;2022-07-29T04:48:55;7.53;;;2.70;;
68800;SDS011;55784;50.734;7.086;2022-07-29T04:51:20;12.57;;;2.67;;
68800;SDS011;55784;50.734;7.086;2022-07-29T04:53:45;7.57;;;2.90;;
68800;SDS011;55784;50.734;7.086;2022-07-29T04:56:11;13.57;;;2.97;;
68800;SDS011;55784;50.734;7.086;2022-07-29T04:58:36;8.20;;;2.40;;
68800;SDS011;55784;50.734;7.086;2022-07-29T05:01:02;6.60;;;2.77;;
68800;SDS011;55784;50.734;7.086;2022-07-29T05:03:28;9.70;;;2.70;;
68800;SDS011;55784;50.734;7.086;2022-07-29T05:05:53;7.87;;;3.03;;
68800;SDS011;55784;50.734;7.086;2022-07-29T05:08:19;7.07;;;2.50;;
68800;SDS011;55784;50.734;7.086;2022-07-29T05:10:44;9.33;;;2.60;;
68800;SDS011;55784;50.734;7.086;2022-07-29T05:13:10;8.40;;;2.33;;
68800;SDS011;55784;50.734;7.086;2022-07-29T05:15:35;9.27;;;2.60;;
68800;SDS011;55784;50.734;7.086;2022-07-29T05:18:01;9.10;;;2.55;;
68800;SDS011;55784;50.734;7.086;2022-07-29T05:20:27;8.03;;;2.30;;
68800;SDS011;55784;50.734;7.086;2022-07-29T05:22:57;9.60;;;2.88;;
68800;SDS011;55784;50.734;7.086;2022-07-29T05:25:24;8.20;;;2.60;;
68800;SDS011;55784;50.734;7.086;2022-07-29T05:27:50;6.07;;;2.30;;
68800;SDS011;55784;50.734;7.086;2022-07-29T05:30:16;8.02;;;2.88;;
68800;SDS011;55784;50.734;7.086;2022-07-29T05:32:41;6.57;;;2.30;;
68800;SDS011;55784;50.734;7.086;2022-07-29T05:35:06;9.23;;;3.43;;
68800;SDS011;55784;50.734;7.086;2022-07-29T05:37:33;7.30;;;2.75;;
68800;SDS011;55784;50.734;7.086;2022-07-29T05:39:58;12.00;;;3.30;;
68800;SDS011;55784;50.734;7.086;2022-07-29T05:42:24;8.67;;;2.57;;
68800;SDS011;55784;50.734;7.086;2022-07-29T05:44:50;11.20;;;2.90;;
68800;SDS011;55784;50.734;7.086;2022-07-29T05:47:16;10.43;;;3.38;;
68800;SDS011;55784;50.734;7.086;2022-07-29T05:49:41;7.13;;;2.50;;
68800;SDS011;55784;50.734;7.086;2022-07-29T05:52:07;9.73;;;2.60;;
68800;SDS011;55784;50.734;7.086;2022-07-29T05:54:32;7.93;;;2.40;;
68800;SDS011;55784;50.734;7.086;2022-07-29T05:56:57;10.70;;;2.30;;
68800;SDS011;55784;50.734;7.086;2022-07-29T05:59:22;8.47;;;2.47;;
68800;SDS011;55784;50.734;7.086;2022-07-29T06:01:48;8.20;;;2.60;;
68800;SDS011;55784;50.734;7.086;2022-07-29T06:04:13;7.13;;;2.30;;
68800;SDS011;55784;50.734;7.086;2022-07-29T06:06:38;8.23;;;2.20;;
68800;SDS011;55784;50.734;7.086;2022-07-29T06:09:04;7.50;;;2.63;;
68800;SDS011;55784;50.734;7.086;2022-07-29T06:11:29;8.13;;;2.23;;
68800;SDS011;55784;50.734;7.086;2022-07-29T06:13:54;9.73;;;2.33;;
68800;SDS011;55784;50.734;7.086;2022-07-29T06:16:20;7.93;;;2.40;;
68800;SDS011;55784;50.734;7.086;2022-07-29T06:18:45;10.17;;;2.33;;
68800;SDS011;55784;50.734;7.086;2022-07-29T06:21:11;8.33;;;2.40;;
68800;SDS011;55784;50.734;7.086;2022-07-29T06:23:36;7.20;;;2.40;;
68800;SDS011;55784;50.734;7.086;2022-07-29T06:26:02;9.93;;;2.40;;
68800;SDS011;55784;50.734;7.086;2022-07-29T06:28:28;6.73;;;2.47;;
68800;SDS011;55784;50.734;7.086;2022-07-29T06:30:53;8.80;;;2.57;;
68800;SDS011;55784;50.734;7.086;2022-07-29T06:33:18;11.70;;;3.80;;
68800;SDS011;55784;50.734;7.086;2022-07-29T06:35:47;11.38;;;2.55;;
68800;SDS011;55784;50.734;7.086;2022-07-29T06:38:13;8.82;;;2.47;;
68800;SDS011;55784;50.734;7.086;2022-07-29T06:40:42;9.80;;;2.40;;
68800;SDS011;55784;50.734;7.086;2022-07-29T06:43:46;11.38;;;2.42;;
68800;SDS011;55784;50.734;7.086;2022-07-29T06:46:15;7.37;;;1.80;;
68800;SDS011;55784;50.734;7.086;2022-07-29T06:48:42;7.57;;;2.08;;
68800;SDS011;55784;50.734;7.086;2022-07-29T06:51:08;7.53;;;2.08;;
68800;SDS011;55784;50.734;7.086;2022-07-29T06:53:34;9.68;;;2.72;;
68800;SDS011;55784;50.734;7.086;2022-07-29T06:56:00;8.82;;;2.55;;
68800;SDS011;55784;50.734;7.086;2022-07-29T06:58:27;8.73;;;2.40;;
68800;SDS011;55784;50.734;7.086;2022-07-29T07:00:53;8.35;;;2.10;;
68800;SDS011;55784;50.734;7.086;2022-07-29T07:03:19;8.45;;;2.00;;
68800;SDS011;55784;50.734;7.086;2022-07-29T07:05:46;9.93;;;2.20;;
68800;SDS011;55784;50.734;7.086;2022-07-29T07:08:11;8.77;;;2.25;;
68800;SDS011;55784;50.734;7.086;2022-07-29T07:10:37;8.27;;;1.90;;
68800;SDS011;55784;50.734;7.086;2022-07-29T07:13:03;10.63;;;2.20;;
68800;SDS011;55784;50.734;7.086;2022-07-29T07:15:30;11.77;;;2.30;;
68800;SDS011;55784;50.734;7.086;2022-07-29T07:17:56;9.55;;;2.20;;
68800;SDS011;55784;50.734;7.086;2022-07-29T07:20:22;7.87;;;2.10;;
68800;SDS011;55784;50.734;7.086;2022-07-29T07:22:49;7.57;;;2.13;;
68800;SDS011;55784;50.734;7.086;2022-07-29T07:25:14;9.33;;;2.20;;
68800;SDS011;55784;50.734;7.086;2022-07-29T07:27:39;7.03;;;2.10;;
68800;SDS011;55784;50.734;7.086;2022-07-29T07:30:06;6.37;;;2.10;;
68800;SDS011;55784;50.734;7.086;2022-07-29T07:32:32;6.50;;;1.90;;
68800;SDS011;55784;50.734;7.086;2022-07-29T07:34:58;8.23;;;2.15;;
68800;SDS011;55784;50.734;7.086;2022-07-29T07:37:24;6.97;;;2.10;;
68800;SDS011;55784;50.734;7.086;2022-07-29T07:39:49;8.30;;;1.80;;
68800;SDS011;55784;50.734;7.086;2022-07-29T07:42:16;7.45;;;2.00;;
68800;SDS011;55784;50.734;7.086;2022-07-29T07:44:41;8.77;;;2.10;;
68800;SDS011;55784;50.734;7.086;2022-07-29T07:47:07;7.10;;;1.90;;
68800;SDS011;55784;50.734;7.086;2022-07-29T07:49:32;8.47;;;2.50;;
68800;SDS011;55784;50.734;7.086;2022-07-29T07:51:57;6.70;;;2.00;;
68800;SDS011;55784;50.734;7.086;2022-07-29T07:54:22;9.40;;;2.17;;
68800;SDS011;55784;50.734;7.086;2022-07-29T07:56:48;9.65;;;2.15;;
68800;SDS011;55784;50.734;7.086;2022-07-29T07:59:14;9.33;;;2.20;;
68800;SDS011;55784;50.734;7.086;2022-07-29T08:01:40;7.78;;;2.10;;
68800;SDS011;55784;50.734;7.086;2022-07-29T08:04:05;10.00;;;2.33;;
68800;SDS011;55784;50.734;7.086;2022-07-29T08:06:31;8.95;;;2.50;;
68800;SDS011;55784;50.734;7.086;2022-07-29T08:08:56;8.73;;;2.30;;
68800;SDS011;55784;50.734;7.086;2022-07-29T08:11:21;6.30;;;2.20;;
68800;SDS011;55784;50.734;7.086;2022-07-29T08:13:47;7.10;;;2.30;;
68800;SDS011;55784;50.734;7.086;2022-07-29T08:16:12;10.77;;;2.27;;
68800;SDS011;55784;50.734;7.086;2022-07-29T08:18:40;8.15;;;2.20;;
68800;SDS011;55784;50.734;7.086;2022-07-29T08:21:06;9.18;;;2.40;;
68800;SDS011;55784;50.734;7.086;2022-07-29T08:23:31;7.37;;;2.33;;
68800;SDS011;55784;50.734;7.086;2022-07-29T08:26:11;7.65;;;2.47;;
68800;SDS011;55784;50.734;7.086;2022-07-29T08:28:39;6.63;;;2.30;;
68800;SDS011;55784;50.734;7.086;2022-07-29T08:31:05;9.95;;;2.30;;
68800;SDS011;55784;50.734;7.086;2022-07-29T08:33:31;10.10;;;2.70;;
68800;SDS011;55784;50.734;7.086;2022-07-29T08:35:57;11.25;;;2.42;;
68800;SDS011;55784;50.734;7.086;2022-07-29T08:38:22;10.87;;;2.63;;
68800;SDS011;55784;50.734;7.086;2022-07-29T08:40:48;9.47;;;2.53;;
68800;SDS011;55784;50.734;7.086;2022-07-29T08:43:13;9.65;;;2.50;;
68800;SDS011;55784;50.734;7.086;2022-07-29T08:45:43;8.37;;;2.47;;
68800;SDS011;55784;50.734;7.086;2022-07-29T08:48:13;9.88;;;2.50;;
68800;SDS011;55784;50.734;7.086;2022-07-29T08:50:39;7.82;;;2.20;;
68800;SDS011;55784;50.734;7.086;2022-07-29T08:53:10;7.93;;;2.17;;
68800;SDS011;55784;50.734;7.086;2022-07-29T08:55:47;9.55;;;2.33;;
68800;SDS011;55784;50.734;7.086;2022-07-29T08:58:14;8.15;;;2.30;;
68800;SDS011;55784;50.734;7.086;2022-07-29T09:00:41;7.95;;;2.33;;
68800;SDS011;55784;50.734;7.086;2022-07-29T09:03:08;9.75;;;2.17;;
68800;SDS011;55784;50.734;7.086;2022-07-29T09:05:35;7.63;;;2.10;;
68800;SDS011;55784;50.734;7.086;2022-07-29T09:08:01;9.98;;;2.50;;
68800;SDS011;55784;50.734;7.086;2022-07-29T09:10:26;10.10;;;2.20;;
68800;SDS011;55784;50.734;7.086;2022-07-29T09:12:54;6.67;;;2.30;;
68800;SDS011;55784;50.734;7.086;2022-07-29T09:15:19;7.15;;;2.05;;
68800;SDS011;55784;50.734;7.086;2022-07-29T09:17:45;10.97;;;2.40;;
68800;SDS011;55784;50.734;7.086;2022-07-29T09:20:14;7.50;;;2.30;;
68800;SDS011;55784;50.734;7.086;2022-07-29T09:22:44;7.20;;;2.22;;
68800;SDS011;55784;50.734;7.086;2022-07-29T09:25:14;8.75;;;2.40;;
68800;SDS011;55784;50.734;7.086;2022-07-29T09:27:39;7.63;;;2.03;;
68800;SDS011;55784;50.734;7.086;2022-07-29T09:30:05;8.20;;;2.20;;
68800;SDS011;55784;50.734;7.086;2022-07-29T09:32:53;8.30;;;2.42;;
68800;SDS011;55784;50.734;7.086;2022-07-29T09:35:20;7.60;;;2.42;;
68800;SDS011;55784;50.734;7.086;2022-07-29T09:37:47;8.00;;;2.70;;
68800;SDS011;55784;50.734;7.086;2022-07-29T09:40:14;10.47;;;2.50;;
68800;SDS011;55784;50.734;7.086;2022-07-29T09:42:41;9.38;;;2.65;;
68800;SDS011;55784;50.734;7.086;2022-07-29T09:45:06;10.13;;;2.90;;
68800;SDS011;55784;50.734;7.086;2022-07-29T09:47:45;10.27;;;3.23;;
68800;SDS011;55784;50.734;7.086;2022-07-29T09:50:13;9.70;;;2.63;;
68800;SDS011;55784;50.734;7.086;2022-07-29T09:52:47;8.48;;;2.47;;
68800;SDS011;55784;50.734;7.086;2022-07-29T09:55:14;14.80;;;2.80;;
68800;SDS011;55784;50.734;7.086;2022-07-29T09:57:39;9.77;;;2.50;;
68800;SDS011;55784;50.734;7.086;2022-07-29T10:00:06;9.60;;;3.00;;
68800;SDS011;55784;50.734;7.086;2022-07-29T10:02:37;9.63;;;2.73;;
68800;SDS011;55784;50.734;7.086;2022-07-29T10:05:05;9.48;;;2.80;;
68800;SDS011;55784;50.734;7.086;2022-07-29T10:10:10;9.75;;;3.00;;
68800;SDS011;55784;50.734;7.086;2022-07-29T10:12:47;11.30;;;2.90;;
68800;SDS011;55784;50.734;7.086;2022-07-29T10:15:15;9.68;;;3.50;;
68800;SDS011;55784;50.734;7.086;2022-07-29T10:17:41;10.60;;;2.70;;
68800;SDS011;55784;50.734;7.086;2022-07-29T10:20:07;10.90;;;3.10;;
68800;SDS011;55784;50.734;7.086;2022-07-29T10:22:33;10.70;;;2.95;;
68800;SDS011;55784;50.734;7.086;2022-07-29T10:24:58;12.07;;;3.27;;
68800;SDS011;55784;50.734;7.086;2022-07-29T10:27:24;7.63;;;2.90;;
68800;SDS011;55784;50.734;7.086;2022-07-29T10:29:49;8.65;;;3.10;;
68800;SDS011;55784;50.734;7.086;2022-07-29T10:40:51;9.70;;;3.10;;
68800;SDS011;55784;50.734;7.086;2022-07-29T10:43:44;7.50;;;2.70;;
68800;SDS011;55784;50.734;7.086;2022-07-29T10:46:11;9.15;;;2.90;;
68800;SDS011;55784;50.734;7.086;2022-07-29T10:57:30;8.43;;;3.10;;
68800;SDS011;55784;50.734;7.086;2022-07-29T11:07:30;6.30;;;2.60;;
68800;SDS011;55784;50.734;7.086;2022-07-29T11:15:01;8.13;;;3.03;;
68800;SDS011;55784;50.734;7.086;2022-07-29T11:17:27;7.97;;;2.78;;
68800;SDS011;55784;50.734;7.086;2022-07-29T11:22:56;7.37;;;2.90;;
68800;SDS011;55784;50.734;7.086;2022-07-29T11:25:22;9.93;;;3.90;;
68800;SDS011;55784;50.734;7.086;2022-07-29T11:27:48;7.85;;;3.50;;
68800;SDS011;55784;50.734;7.086;2022-07-29T11:30:14;9.30;;;3.10;;
68800;SDS011;55784;50.734;7.086;2022-07-29T11:32:41;7.68;;;3.40;;
68800;SDS011;55784;50.734;7.086;2022-07-29T11:35:21;11.40;;;3.25;;
68800;SDS011;55784;50.734;7.086;2022-07-29T11:38:33;9.97;;;3.53;;
68800;SDS011;55784;50.734;7.086;2022-07-29T11:43:49;8.27;;;3.70;;
68800;SDS011;55784;50.734;7.086;2022-07-29T11:46:17;8.52;;;3.42;;
68800;SDS011;55784;50.734;7.086;2022-07-29T11:49:03;10.75;;;3.53;;
68800;SDS011;55784;50.734;7.086;2022-07-29T11:51:28;9.00;;;3.37;;
68800;SDS011;55784;50.734;7.086;2022-07-29T11:53:54;11.50;;;3.50;;
68800;SDS011;55784;50.734;7.086;2022-07-29T11:56:20;8.15;;;3.10;;
68800;SDS011;55784;50.734;7.086;2022-07-29T11:58:46;8.32;;;3.28;;
68800;SDS011;55784;50.734;7.086;2022-07-29T12:01:16;8.27;;;3.03;;
68800;SDS011;55784;50.734;7.086;2022-07-29T12:03:42;8.68;;;2.75;;
68800;SDS011;55784;50.734;7.086;2022-07-29T12:06:13;8.43;;;3.00;;
68800;SDS011;55784;50.734;7.086;2022-07-29T12:08:39;8.38;;;3.95;;
68800;SDS011;55784;50.734;7.086;2022-07-29T12:11:14;9.05;;;2.83;;
68800;SDS011;55784;50.734;7.086;2022-07-29T12:13:41;6.47;;;2.80;;
68800;SDS011;55784;50.734;7.086;2022-07-29T12:16:06;9.73;;;2.73;;
68800;SDS011;55784;50.734;7.086;2022-07-29T12:18:31;7.30;;;2.60;;
68800;SDS011;55784;50.734;7.086;2022-07-29T12:20:57;9.70;;;3.03;;
68800;SDS011;55784;50.734;7.086;2022-07-29T12:23:24;6.20;;;2.67;;
68800;SDS011;55784;50.734;7.086;2022-07-29T12:25:49;8.20;;;2.60;;
68800;SDS011;55784;50.734;7.086;2022-07-29T12:28:15;7.23;;;2.90;;
68800;SDS011;55784;50.734;7.086;2022-07-29T12:30:44;8.30;;;2.80;;
68800;SDS011;55784;50.734;7.086;2022-07-29T12:35:53;8.27;;;2.92;;
68800;SDS011;55784;50.734;7.086;2022-07-29T12:38:21;9.53;;;2.90;;
68800;SDS011;55784;50.734;7.086;2022-07-29T12:40:47;7.85;;;2.70;;
68800;SDS011;55784;50.734;7.086;2022-07-29T12:43:20;6.25;;;2.60;;
68800;SDS011;55784;50.734;7.086;2022-07-29T12:45:50;6.70;;;2.95;;
68800;SDS011;55784;50.734;7.086;2022-07-29T12:48:33;8.77;;;2.77;;
68800;SDS011;55784;50.734;7.086;2022-07-29T12:51:03;6.40;;;2.70;;
68800;SDS011;55784;50.734;7.086;2022-07-29T12:53:29;7.68;;;2.80;;
68800;SDS011;55784;50.734;7.086;2022-07-29T12:55:55;6.80;;;2.70;;
68800;SDS011;55784;50.734;7.086;2022-07-29T13:06:48;7.13;;;2.65;;
68800;SDS011;55784;50.734;7.086;2022-07-29T13:09:17;7.57;;;2.83;;
68800;SDS011;55784;50.734;7.086;2022-07-29T13:11:48;8.20;;;2.80;;
68800;SDS011;55784;50.734;7.086;2022-07-29T13:14:34;7.60;;;2.85;;
68800;SDS011;55784;50.734;7.086;2022-07-29T13:17:11;9.32;;;2.88;;
68800;SDS011;55784;50.734;7.086;2022-07-29T13:19:48;7.10;;;2.90;;
68800;SDS011;55784;50.734;7.086;2022-07-29T13:22:21;7.05;;;2.80;;
68800;SDS011;55784;50.734;7.086;2022-07-29T13:24:49;6.40;;;2.57;;
68800;SDS011;55784;50.734;7.086;2022-07-29T13:27:25;7.90;;;2.70;;
68800;SDS011;55784;50.734;7.086;2022-07-29T13:29:51;6.93;;;2.70;;
68800;SDS011;55784;50.734;7.086;2022-07-29T13:32:18;7.25;;;2.80;;
68800;SDS011;55784;50.734;7.086;2022-07-29T13:34:44;6.53;;;2.83;;
68800;SDS011;55784;50.734;7.086;2022-07-29T13:37:09;6.97;;;3.00;;
68800;SDS011;55784;50.734;7.086;2022-07-29T13:39:35;8.53;;;3.17;;
68800;SDS011;55784;50.734;7.086;2022-07-29T13:42:02;10.60;;;2.90;;
68800;SDS011;55784;50.734;7.086;2022-07-29T13:44:27;7.53;;;2.70;;
68800;SDS011;55784;50.734;7.086;2022-07-29T13:46:52;8.73;;;3.00;;
68800;SDS011;55784;50.734;7.086;2022-07-29T13:49:18;6.10;;;2.50;;
68800;SDS011;55784;50.734;7.086;2022-07-29T13:51:43;6.60;;;2.80;;
68800;SDS011;55784;50.734;7.086;2022-07-29T13:54:08;7.10;;;3.10;;
68800;SDS011;55784;50.734;7.086;2022-07-29T13:56:34;8.63;;;2.80;;
68800;SDS011;55784;50.734;7.086;2022-07-29T13:58:59;8.13;;;2.60;;
68800;SDS011;55784;50.734;7.086;2022-07-29T14:01:25;6.67;;;2.70;;
68800;SDS011;55784;50.734;7.086;2022-07-29T14:03:52;7.40;;;2.90;;
68800;SDS011;55784;50.734;7.086;2022-07-29T14:06:17;8.87;;;2.70;;
68800;SDS011;55784;50.734;7.086;2022-07-29T14:08:43;6.87;;;2.70;;
68800;SDS011;55784;50.734;7.086;2022-07-29T14:11:08;7.05;;;2.88;;
68800;SDS011;55784;50.734;7.086;2022-07-29T14:13:33;7.40;;;2.67;;
68800;SDS011;55784;50.734;7.086;2022-07-29T14:15:59;7.20;;;2.60;;
68800;SDS011;55784;50.734;7.086;2022-07-29T14:18:24;8.60;;;2.57;;
68800;SDS011;55784;50.734;7.086;2022-07-29T14:20:49;7.43;;;2.50;;
68800;SDS011;55784;50.734;7.086;2022-07-29T14:23:16;8.20;;;2.80;;
68800;SDS011;55784;50.734;7.086;2022-07-29T14:25:41;6.50;;;2.80;;
68800;SDS011;55784;50.734;7.086;2022-07-29T14:28:07;8.53;;;2.60;;
68800;SDS011;55784;50.734;7.086;2022-07-29T14:30:32;8.73;;;2.60;;
68800;SDS011;55784;50.734;7.086;2022-07-29T14:32:57;7.20;;;2.60;;
68800;SDS011;55784;50.734;7.086;2022-07-29T14:35:23;6.33;;;2.70;;
68800;SDS011;55784;50.734;7.086;2022-07-29T14:37:48;8.77;;;2.90;;
68800;SDS011;55784;50.734;7.086;2022-07-29T14:40:14;7.80;;;3.15;;
68800;SDS011;55784;50.734;7.086;2022-07-29T14:42:39;6.57;;;2.80;;
68800;SDS011;55784;50.734;7.086;2022-07-29T14:45:05;6.60;;;2.90;;
68800;SDS011;55784;50.734;7.086;2022-07-29T14:47:31;7.28;;;2.72;;
68800;SDS011;55784;50.734;7.086;2022-07-29T14:49:57;8.17;;;2.80;;
68800;SDS011;55784;50.734;7.086;2022-07-29T14:52:22;7.20;;;2.93;;
68800;SDS011;55784;50.734;7.086;2022-07-29T14:54:47;6.93;;;2.88;;
68800;SDS011;55784;50.734;7.086;2022-07-29T14:57:12;8.27;;;3.40;;
68800;SDS011;55784;50.734;7.086;2022-07-29T14:59:38;6.77;;;2.80;;
68800;SDS011;55784;50.734;7.086;2022-07-29T15:02:03;9.60;;;3.17;;
68800;SDS011;55784;50.734;7.086;2022-07-29T15:04:28;6.43;;;3.10;;
68800;SDS011;55784;50.734;7.086;2022-07-29T15:06:54;7.87;;;3.13;;
68800;SDS011;55784;50.734;7.086;2022-07-29T15:09:19;6.97;;;3.23;;
68800;SDS011;55784;50.734;7.086;2022-07-29T15:11:44;8.37;;;3.47;;
68800;SDS011;55784;50.734;7.086;2022-07-29T15:14:10;8.27;;;2.97;;
68800;SDS011;55784;50.734;7.086;2022-07-29T15:16:36;9.00;;;3.50;;
68800;SDS011;55784;50.734;7.086;2022-07-29T15:19:02;7.43;;;3.20;;
68800;SDS011;55784;50.734;7.086;2022-07-29T15:21:28;9.20;;;3.42;;
68800;SDS011;55784;50.734;7.086;2022-07-29T15:23:53;12.80;;;3.50;;
68800;SDS011;55784;50.734;7.086;2022-07-29T15:26:19;9.70;;;3.25;;
68800;SDS011;55784;50.734;7.086;2022-07-29T15:28:44;9.53;;;3.40;;
68800;SDS011;55784;50.734;7.086;2022-07-29T15:31:09;9.97;;;3.27;;
68800;SDS011;55784;50.734;7.086;2022-07-29T15:33:35;9.50;;;3.50;;
68800;SDS011;55784;50.734;7.086;2022-07-29T15:36:00;6.83;;;3.00;;
68800;SDS011;55784;50.734;7.086;2022-07-29T15:38:25;8.43;;;3.10;;
68800;SDS011;55784;50.734;7.086;2022-07-29T15:40:51;10.15;;;3.50;;
68800;SDS011;55784;50.734;7.086;2022-07-29T15:43:16;7.27;;;2.70;;
68800;SDS011;55784;50.734;7.086;2022-07-29T15:45:42;9.07;;;3.10;;